• Join FlightAware (Why Join?)
  • Login
  • US Flag 
10:01PM EST


 

Airport Tracker/Info


-or-


 

Live Flight TrackerFlight Track Log ✈ DAL1735 ✈ 15-Jun-2013 ✈ KLAX - PHLI / LIH

Flight Track Log - Related Links

Times and Time Zones

All times are in EDT time to prevent confusion due to time zone crossing. See the DAL1735 flight status page for this flight to view local times or setup timezone preferences in your user account.

Time Position Orientation Groundspeed Altitude Reporting Facility
EDT Latitude Longitude Course Direction KTS MPH feet Rate Location/Type
07:41PM 33.9467 -118.4472 270° West 188 216 1,100  Level Los Angeles Center
07:42PM 33.9378 -118.5308 263° West 246 283 2,800 2,040 Climbing Los Angeles Center
07:43PM 33.9308 -118.6081 264° West 272 313 5,300 2,820 Climbing Los Angeles Center
07:44PM 33.9000 -118.8224 270° West  Level FlightAware Approximate
07:44PM 33.9208 -118.7214 264° West 279 321 8,600  Level Los Angeles Center
07:45PM 33.8782 -118.9625 264° West  Level FlightAware Approximate
07:45PM 33.9106 -118.8189 263° West 287 330 10,700  Level Los Angeles Center
07:46PM 33.8658 -119.1049 259° West  Level FlightAware Approximate
07:46PM 33.9008 -118.9269 264° West 327 376 11,900  Level Los Angeles Center
07:47PM 33.8500 -119.2458 270° West  Level FlightAware Approximate
07:47PM 33.8869 -119.0483 262° West 368 423 13,000  Level Los Angeles Center
07:48PM 33.8750 -119.1753 264° West 384 442 14,700 1,800 Climbing Los Angeles Center
07:49PM 33.8608 -119.3031 262° West 387 445 16,800 1,080 Climbing Los Angeles Center
07:50PM 33.8456 -119.4581 263° West 388 447 17,000 960 Climbing Los Angeles Center
07:51PM 33.8339 -119.5881 264° West 391 450 18,900 1,740 Climbing Los Angeles Center
07:52PM 33.8186 -119.7203 262° West 396 456 20,600 1,680 Climbing Los Angeles Center
07:53PM 33.8050 -119.8561 263° West 406 467 22,400 1,560 Climbing Los Angeles Center
07:54PM 33.7900 -119.9919 262° West 410 472 23,900 1,320 Climbing Los Angeles Center
07:55PM 33.7761 -120.1283 263° West 417 480 25,200 1,200 Climbing Los Angeles Center
07:57PM 33.7606 -120.2689 262° West 422 486 26,400 1,200 Climbing Los Angeles Center
07:58PM 33.7406 -120.4428 262° West 428 493 27,800 1,080 Climbing Los Angeles Center
07:59PM 33.7236 -120.5911 262° West 435 501 28,700 960 Climbing Los Angeles Center
08:00PM 33.7061 -120.7397 262° West 442 509 30,000 540 Climbing Los Angeles Center
08:01PM 33.6861 -120.9133 262° West 442 509 30,000  Level Los Angeles Center
08:02PM 33.6689 -121.0578 262° West 439 505 30,000  Level Los Angeles Center
08:03PM 33.6522 -121.2056 262° West 443 510 30,000  Level Los Angeles Center
08:04PM 33.6308 -121.3831 262° West 446 513 30,000  Level Los Angeles Center
08:05PM 33.6131 -121.5300 262° West 446 513 30,000  Level Los Angeles Center
08:06PM 33.5953 -121.6758 262° West 442 509 30,000  Level Los Angeles Center
08:07PM 33.5778 -121.8200 262° West 438 504 30,000  Level Los Angeles Center
08:08PM 33.5583 -121.9636 261° West 437 503 30,000  Level Los Angeles Center
08:09PM 33.5425 -122.1075 263° West 435 501 30,000  Level Los Angeles Center
08:10PM 33.5244 -122.2508 261° West 434 499 30,000  Level Los Angeles Center
08:11PM 33.5028 -122.4225 261° West 434 499 30,000  Level Los Angeles Center
08:13PM 33.4617 -122.6081 257° West  Level FlightAware Approximate
08:20PM 33.2637 -123.5828 257° West  Level FlightAware Approximate
08:21PM 33.2348 -123.7217 256° West  Level FlightAware Approximate
08:22PM 33.2057 -123.8605 256° West  Level FlightAware Approximate
08:23PM 33.1767 -123.9976 256° West  Level FlightAware Approximate
08:24PM 33.1475 -124.1347 256° West  Level FlightAware Approximate
08:25PM 33.1182 -124.2716 256° West  Level FlightAware Approximate
08:26PM 33.0887 -124.4084 256° West  Level FlightAware Approximate
08:27PM 33.0609 -124.5425 255° West  Level FlightAware Approximate
08:28PM 33.0304 -124.6789 255° West  Level FlightAware Approximate
08:29PM 32.9997 -124.8152 255° West  Level FlightAware Approximate
08:29PM 33.0667 -124.5167 255° West 426 490 30,000  Level Oakland Oceanic (ODAPS)
08:30PM 32.9689 -124.9514 255° West  Level FlightAware Approximate
08:31PM 32.9379 -125.0876 255° West  Level FlightAware Approximate
08:32PM 32.9068 -125.2236 255° West  Level FlightAware Approximate
08:33PM 32.8755 -125.3596 255° West  Level FlightAware Approximate
08:34PM 32.8441 -125.4954 255° West  Level FlightAware Approximate
08:35PM 32.7869 -125.7408 254° West 426 490 30,000  Level FlightAware Transoceanic
08:36PM 32.7551 -125.8764 254° West 426 490 30,000  Level FlightAware Transoceanic
08:37PM 32.7231 -126.0118 254° West 426 490 30,000  Level FlightAware Transoceanic
08:38PM 32.6910 -126.1471 254° West 426 490 30,000  Level FlightAware Transoceanic
08:39PM 32.6587 -126.2824 254° West 426 490 30,000  Level FlightAware Transoceanic
08:40PM 32.6263 -126.4175 254° West 426 490 30,000  Level FlightAware Transoceanic
08:41PM 32.5938 -126.5526 254° West 426 490 30,000  Level FlightAware Transoceanic
08:42PM 32.5611 -126.6875 254° West 426 490 30,000  Level FlightAware Transoceanic
08:43PM 32.5282 -126.8224 254° West 426 490 30,000  Level FlightAware Transoceanic
08:44PM 32.4953 -126.9571 254° West 426 490 30,000  Level FlightAware Transoceanic
08:45PM 32.4621 -127.0918 254° West 426 490 30,000  Level FlightAware Transoceanic
08:46PM 32.4289 -127.2263 254° West 426 490 30,000  Level FlightAware Transoceanic
08:47PM 32.3955 -127.3608 254° West 426 490 30,000  Level FlightAware Transoceanic
08:48PM 32.3619 -127.4952 253° West 426 490 30,000  Level FlightAware Transoceanic
08:49PM 32.3282 -127.6294 253° West 426 490 30,000  Level FlightAware Transoceanic
08:50PM 32.2944 -127.7636 253° West 426 490 30,000  Level FlightAware Transoceanic
08:51PM 32.2604 -127.8976 253° West 426 490 30,000  Level FlightAware Transoceanic
08:52PM 32.2263 -128.0316 253° West 426 490 30,000  Level FlightAware Transoceanic
08:53PM 32.1920 -128.1655 253° West 426 490 30,000  Level FlightAware Transoceanic
08:54PM 32.1576 -128.2992 253° West 426 490 30,000  Level FlightAware Transoceanic
08:55PM 32.1231 -128.4328 253° West 426 490 30,000  Level FlightAware Transoceanic
08:56PM 32.0884 -128.5664 253° West 426 490 30,000  Level FlightAware Transoceanic
08:57PM 32.0536 -128.6998 253° West 426 490 30,000  Level FlightAware Transoceanic
08:58PM 32.0186 -128.8332 253° West 426 490 30,000  Level FlightAware Transoceanic
08:59PM 31.9835 -128.9664 253° West 426 490 30,000  Level FlightAware Transoceanic
09:00PM 31.9482 -129.0996 253° West 426 490 30,000  Level FlightAware Transoceanic
09:01PM 31.9129 -129.2326 253° West 426 490 30,000  Level FlightAware Transoceanic
09:02PM 31.8774 -129.3656 252° West 426 490 30,000  Level FlightAware Transoceanic
09:03PM 31.8417 -129.4984 252° West 426 490 30,000  Level FlightAware Transoceanic
09:04PM 31.8059 -129.6311 252° West 426 490 30,000  Level FlightAware Transoceanic
09:05PM 31.7700 -129.7638 252° West 426 490 30,000  Level FlightAware Transoceanic
09:06PM 31.7339 -129.8963 252° West 426 490 30,000  Level FlightAware Transoceanic
09:07PM 31.6977 -130.0287 252° West 426 490 30,000  Level FlightAware Transoceanic
09:08PM 31.6614 -130.1611 252° West 426 490 30,000  Level FlightAware Transoceanic
09:09PM 31.6249 -130.2933 252° West 426 490 30,000  Level FlightAware Transoceanic
09:10PM 31.5883 -130.4254 252° West 426 490 30,000  Level FlightAware Transoceanic
09:11PM 31.5515 -130.5574 252° West 426 490 30,000  Level FlightAware Transoceanic
09:12PM 31.5146 -130.6893 252° West 426 490 30,000  Level FlightAware Transoceanic
09:13PM 31.4776 -130.8211 252° West 426 490 30,000  Level FlightAware Transoceanic
09:14PM 31.4404 -130.9528 252° West 426 490 30,000  Level FlightAware Transoceanic
09:15PM 31.4032 -131.0844 252° West 426 490 30,000  Level FlightAware Transoceanic
09:16PM 31.3657 -131.2159 252° West 426 490 30,000  Level FlightAware Transoceanic
09:17PM 31.3282 -131.3472 251° West 426 490 30,000  Level FlightAware Transoceanic
09:18PM 31.2905 -131.4785 251° West 426 490 30,000  Level FlightAware Transoceanic
09:19PM 31.2526 -131.6097 251° West 426 490 30,000  Level FlightAware Transoceanic
09:20PM 31.2147 -131.7408 251° West 426 490 30,000  Level FlightAware Transoceanic
09:21PM 31.1766 -131.8717 251° West 426 490 30,000  Level FlightAware Transoceanic
09:22PM 31.1384 -132.0026 251° West 426 490 30,000  Level FlightAware Transoceanic
09:23PM 31.1000 -132.1333 251° West 426 490 30,000  Level FlightAware Transoceanic
09:24PM 31.0607 -132.2668 251° West 426 490 30,000  Level FlightAware Transoceanic
09:25PM 31.0214 -132.4001 251° West 426 490 30,000 840 Level FlightAware Transoceanic
09:25PM 31.1000 -132.1333 251° West 427 491 31,000  Climbing Oakland Oceanic (ODAPS)
09:26PM 30.9818 -132.5333 251° West 426 490 30,000 -540 Descending FlightAware Transoceanic
09:27PM 30.9422 -132.6664 251° West 426 490 30,000  Level FlightAware Transoceanic
09:28PM 30.9024 -132.7994 251° West 426 490 30,000  Level FlightAware Transoceanic
09:29PM 30.8625 -132.9323 251° West 426 490 30,000  Level FlightAware Transoceanic
09:30PM 30.8224 -133.0650 251° West 426 490 30,000 480 Level FlightAware Transoceanic
09:31PM 30.7482 -133.3093 250° West 427 491 31,000 480 Climbing FlightAware Transoceanic
09:32PM 30.7085 -133.4394 250° West 427 491 31,000  Level FlightAware Transoceanic
09:33PM 30.6686 -133.5694 250° West 427 491 31,000  Level FlightAware Transoceanic
09:34PM 30.6286 -133.6994 250° West 427 491 31,000  Level FlightAware Transoceanic
09:35PM 30.5885 -133.8292 250° West 427 491 31,000  Level FlightAware Transoceanic
09:36PM 30.5483 -133.9589 250° West 427 491 31,000  Level FlightAware Transoceanic
09:37PM 30.5079 -134.0885 250° West 427 491 31,000  Level FlightAware Transoceanic
09:38PM 30.4674 -134.2179 250° West 427 491 31,000  Level FlightAware Transoceanic
09:39PM 30.4267 -134.3473 250° West 427 491 31,000  Level FlightAware Transoceanic
09:40PM 30.3860 -134.4766 250° West 427 491 31,000  Level FlightAware Transoceanic
09:41PM 30.3451 -134.6057 250° West 427 491 31,000  Level FlightAware Transoceanic
09:42PM 30.3040 -134.7348 250° West 427 491 31,000  Level FlightAware Transoceanic
09:43PM 30.2629 -134.8637 250° West 427 491 31,000  Level FlightAware Transoceanic
09:44PM 30.2216 -134.9926 250° West 427 491 31,000  Level FlightAware Transoceanic
09:45PM 30.1802 -135.1213 250° West 427 491 31,000  Level FlightAware Transoceanic
09:46PM 30.1387 -135.2499 249° West 427 491 31,000  Level FlightAware Transoceanic
09:47PM 30.0970 -135.3784 249° West 427 491 31,000  Level FlightAware Transoceanic
09:48PM 30.0553 -135.5068 249° West 427 491 31,000  Level FlightAware Transoceanic
09:49PM 30.0134 -135.6351 249° West 427 491 31,000  Level FlightAware Transoceanic
09:50PM 29.9713 -135.7633 249° West 427 491 31,000  Level FlightAware Transoceanic
09:51PM 29.9292 -135.8914 249° West 427 491 31,000  Level FlightAware Transoceanic
09:52PM 29.8869 -136.0193 249° West 427 491 31,000  Level FlightAware Transoceanic
09:53PM 29.8445 -136.1472 249° West 427 491 31,000  Level FlightAware Transoceanic
09:54PM 29.8020 -136.2750 249° West 427 491 31,000  Level FlightAware Transoceanic
09:55PM 29.7594 -136.4026 249° West 427 491 31,000  Level FlightAware Transoceanic
09:56PM 29.7166 -136.5301 249° West 427 491 31,000  Level FlightAware Transoceanic
09:57PM 29.6737 -136.6576 249° West 427 491 31,000  Level FlightAware Transoceanic
09:58PM 29.6307 -136.7849 249° West 427 491 31,000  Level FlightAware Transoceanic
09:59PM 29.5876 -136.9121 249° West 427 491 31,000  Level FlightAware Transoceanic
10:00PM 29.5443 -137.0392 249° West 427 491 31,000  Level FlightAware Transoceanic
10:01PM 29.5010 -137.1662 249° West 427 491 31,000  Level FlightAware Transoceanic
10:02PM 29.4575 -137.2930 248° West 427 491 31,000  Level FlightAware Transoceanic
10:03PM 29.4139 -137.4198 248° West 427 491 31,000  Level FlightAware Transoceanic
10:04PM 29.3701 -137.5465 248° West 427 491 31,000  Level FlightAware Transoceanic
10:05PM 29.3263 -137.6730 248° West 427 491 31,000  Level FlightAware Transoceanic
10:06PM 29.2823 -137.7995 248° West 427 491 31,000  Level FlightAware Transoceanic
10:07PM 29.2382 -137.9258 248° West 427 491 31,000  Level FlightAware Transoceanic
10:08PM 29.1940 -138.0520 248° West 427 491 31,000  Level FlightAware Transoceanic
10:09PM 29.1497 -138.1781 248° West 427 491 31,000  Level FlightAware Transoceanic
10:10PM 29.1052 -138.3042 248° West 427 491 31,000  Level FlightAware Transoceanic
10:11PM 29.0607 -138.4301 248° West 427 491 31,000  Level FlightAware Transoceanic
10:12PM 29.0160 -138.5558 248° West 427 491 31,000  Level FlightAware Transoceanic
10:13PM 28.9712 -138.6815 248° West 427 491 31,000  Level FlightAware Transoceanic
10:14PM 28.9263 -138.8071 248° West 427 491 31,000  Level FlightAware Transoceanic
10:15PM 28.8813 -138.9326 248° West 427 491 31,000  Level FlightAware Transoceanic
10:16PM 28.8361 -139.0579 248° West 427 491 31,000  Level FlightAware Transoceanic
10:17PM 28.7909 -139.1832 248° West 427 491 31,000  Level FlightAware Transoceanic
10:18PM 28.7455 -139.3083 247° West 427 491 31,000  Level FlightAware Transoceanic
10:19PM 28.7000 -139.4333 247° West 427 491 31,000  Level FlightAware Transoceanic
10:20PM 28.6530 -139.5610 247° West 427 491 31,000  Level FlightAware Transoceanic
10:21PM 28.6059 -139.6886 247° West 427 491 31,000  Level FlightAware Transoceanic
10:21PM 28.7000 -139.4333 247° West 422 486 31,000  Level Oakland Oceanic (ODAPS)
10:22PM 28.5587 -139.8161 247° West 427 491 31,000  Level FlightAware Transoceanic
10:23PM 28.5113 -139.9434 247° West 427 491 31,000  Level FlightAware Transoceanic
10:24PM 28.4639 -140.0707 247° West 427 491 31,000  Level FlightAware Transoceanic
10:25PM 28.4163 -140.1978 247° West 427 491 31,000  Level FlightAware Transoceanic
10:26PM 28.3686 -140.3248 247° West 427 491 31,000  Level FlightAware Transoceanic
10:27PM 28.2883 -140.5377 247° West 422 486 31,000  Level FlightAware Transoceanic
10:28PM 28.2420 -140.6599 247° West 422 486 31,000  Level FlightAware Transoceanic
10:29PM 28.1956 -140.7820 247° West 422 486 31,000  Level FlightAware Transoceanic
10:30PM 28.1491 -140.9040 247° West 422 486 31,000  Level FlightAware Transoceanic
10:31PM 28.1024 -141.0258 247° West 422 486 31,000  Level FlightAware Transoceanic
10:32PM 28.0557 -141.1476 246° West 422 486 31,000  Level FlightAware Transoceanic
10:33PM 28.0089 -141.2692 246° West 422 486 31,000  Level FlightAware Transoceanic
10:34PM 27.9619 -141.3908 246° West 422 486 31,000  Level FlightAware Transoceanic
10:35PM 27.9149 -141.5122 246° West 422 486 31,000  Level FlightAware Transoceanic
10:36PM 27.8677 -141.6335 246° West 422 486 31,000  Level FlightAware Transoceanic
10:37PM 27.8205 -141.7548 246° West 422 486 31,000  Level FlightAware Transoceanic
10:38PM 27.7731 -141.8759 246° West 422 486 31,000  Level FlightAware Transoceanic
10:39PM 27.7256 -141.9969 246° West 422 486 31,000  Level FlightAware Transoceanic
10:40PM 27.6781 -142.1178 246° West 422 486 31,000  Level FlightAware Transoceanic
10:41PM 27.6304 -142.2386 246° West 422 486 31,000  Level FlightAware Transoceanic
10:42PM 27.5826 -142.3593 246° West 422 486 31,000  Level FlightAware Transoceanic
10:43PM 27.5347 -142.4799 246° West 422 486 31,000  Level FlightAware Transoceanic
10:44PM 27.4867 -142.6004 246° West 422 486 31,000  Level FlightAware Transoceanic
10:45PM 27.4386 -142.7208 246° West 422 486 31,000  Level FlightAware Transoceanic
10:46PM 27.3904 -142.8411 246° West 422 486 31,000  Level FlightAware Transoceanic
10:47PM 27.3421 -142.9613 246° West 422 486 31,000  Level FlightAware Transoceanic
10:48PM 27.2937 -143.0813 246° West 422 486 31,000  Level FlightAware Transoceanic
10:49PM 27.2452 -143.2013 246° West 422 486 31,000  Level FlightAware Transoceanic
10:50PM 27.1966 -143.3212 245° Southwest 422 486 31,000  Level FlightAware Transoceanic
10:51PM 27.1479 -143.4409 245° Southwest 422 486 31,000  Level FlightAware Transoceanic
10:52PM 27.0990 -143.5606 245° Southwest 422 486 31,000  Level FlightAware Transoceanic
10:53PM 27.0501 -143.6801 245° Southwest 422 486 31,000  Level FlightAware Transoceanic
10:54PM 27.0011 -143.7995 245° Southwest 422 486 31,000  Level FlightAware Transoceanic
10:55PM 26.9520 -143.9189 245° Southwest 422 486 31,000  Level FlightAware Transoceanic
10:56PM 26.9028 -144.0381 245° Southwest 422 486 31,000  Level FlightAware Transoceanic
10:57PM 26.8534 -144.1573 245° Southwest 422 486 31,000  Level FlightAware Transoceanic
10:58PM 26.8040 -144.2763 245° Southwest 422 486 31,000  Level FlightAware Transoceanic
10:59PM 26.7545 -144.3952 245° Southwest 422 486 31,000  Level FlightAware Transoceanic
11:00PM 26.7049 -144.5140 245° Southwest 422 486 31,000  Level FlightAware Transoceanic
11:01PM 26.6552 -144.6327 245° Southwest 422 486 31,000  Level FlightAware Transoceanic
11:02PM 26.6054 -144.7513 245° Southwest 422 486 31,000  Level FlightAware Transoceanic
11:03PM 26.5554 -144.8699 245° Southwest 422 486 31,000  Level FlightAware Transoceanic
11:04PM 26.5054 -144.9883 245° Southwest 422 486 31,000  Level FlightAware Transoceanic
11:05PM 26.4553 -145.1066 245° Southwest 422 486 31,000  Level FlightAware Transoceanic
11:06PM 26.4051 -145.2248 245° Southwest 422 486 31,000  Level FlightAware Transoceanic
11:07PM 26.3548 -145.3429 245° Southwest 422 486 31,000  Level FlightAware Transoceanic
11:08PM 26.3044 -145.4609 244° Southwest 422 486 31,000  Level FlightAware Transoceanic
11:09PM 26.2539 -145.5788 244° Southwest 422 486 31,000  Level FlightAware Transoceanic
11:10PM 26.2033 -145.6965 244° Southwest 422 486 31,000  Level FlightAware Transoceanic
11:11PM 26.1526 -145.8142 244° Southwest 422 486 31,000  Level FlightAware Transoceanic
11:12PM 26.1019 -145.9318 244° Southwest 422 486 31,000  Level FlightAware Transoceanic
11:13PM 26.0510 -146.0493 244° Southwest 422 486 31,000  Level FlightAware Transoceanic
11:14PM 26.0000 -146.1667 244° Southwest 422 486 31,000  Level FlightAware Transoceanic
11:14PM 26.0000 -146.1667 244° Southwest 436 502 31,000  Level Oakland Oceanic (ODAPS)
11:15PM 25.9453 -146.2930 244° Southwest 422 486 31,000  Level FlightAware Transoceanic
11:16PM 25.8904 -146.4192 244° Southwest 422 486 31,000  Level FlightAware Transoceanic
11:17PM 25.8355 -146.5453 244° Southwest 422 486 31,000  Level FlightAware Transoceanic
11:18PM 25.7804 -146.6712 244° Southwest 422 486 31,000  Level FlightAware Transoceanic
11:19PM 25.7252 -146.7971 244° Southwest 422 486 31,000  Level FlightAware Transoceanic
11:20PM 25.6289 -147.0159 244° Southwest 436 502 31,000  Level FlightAware Transoceanic
11:21PM 25.5755 -147.1367 244° Southwest 436 502 31,000  Level FlightAware Transoceanic
11:22PM 25.5220 -147.2575 244° Southwest 436 502 31,000  Level FlightAware Transoceanic
11:23PM 25.4684 -147.3782 244° Southwest 436 502 31,000  Level FlightAware Transoceanic
11:24PM 25.4147 -147.4987 244° Southwest 436 502 31,000  Level FlightAware Transoceanic
11:25PM 25.3609 -147.6192 244° Southwest 436 502 31,000  Level FlightAware Transoceanic
11:26PM 25.3070 -147.7395 244° Southwest 436 502 31,000  Level FlightAware Transoceanic
11:27PM 25.2530 -147.8598 244° Southwest 436 502 31,000  Level FlightAware Transoceanic
11:28PM 25.1989 -147.9799 244° Southwest 436 502 31,000  Level FlightAware Transoceanic
11:29PM 25.1447 -148.0999 243° Southwest 436 502 31,000  Level FlightAware Transoceanic
11:30PM 25.0904 -148.2198 243° Southwest 436 502 31,000  Level FlightAware Transoceanic
11:31PM 25.0360 -148.3396 243° Southwest 436 502 31,000  Level FlightAware Transoceanic
11:32PM 24.9816 -148.4593 243° Southwest 436 502 31,000  Level FlightAware Transoceanic
11:33PM 24.9270 -148.5789 243° Southwest 436 502 31,000  Level FlightAware Transoceanic
11:34PM 24.8723 -148.6984 243° Southwest 436 502 31,000  Level FlightAware Transoceanic
11:35PM 24.8175 -148.8178 243° Southwest 436 502 31,000  Level FlightAware Transoceanic
11:36PM 24.7627 -148.9371 243° Southwest 436 502 31,000  Level FlightAware Transoceanic
11:37PM 24.7077 -149.0562 243° Southwest 436 502 31,000  Level FlightAware Transoceanic
11:38PM 24.6527 -149.1753 243° Southwest 436 502 31,000  Level FlightAware Transoceanic
11:39PM 24.5975 -149.2943 243° Southwest 436 502 31,000  Level FlightAware Transoceanic
11:40PM 24.5423 -149.4131 243° Southwest 436 502 31,000  Level FlightAware Transoceanic
11:41PM 24.4869 -149.5319 243° Southwest 436 502 31,000  Level FlightAware Transoceanic
11:42PM 24.4315 -149.6505 243° Southwest 436 502 31,000  Level FlightAware Transoceanic
11:43PM 24.3760 -149.7691 243° Southwest 436 502 31,000  Level FlightAware Transoceanic
11:44PM 24.3204 -149.8875 243° Southwest 436 502 31,000  Level FlightAware Transoceanic
11:45PM 24.2647 -150.0058 243° Southwest 436 502 31,000  Level FlightAware Transoceanic
11:46PM 24.2089 -150.1241 243° Southwest 436 502 31,000  Level FlightAware Transoceanic
11:47PM 24.1530 -150.2422 243° Southwest 436 502 31,000  Level FlightAware Transoceanic
11:48PM 24.0970 -150.3602 243° Southwest 436 502 31,000  Level FlightAware Transoceanic
11:49PM 24.0410 -150.4782 242° Southwest 436 502 31,000  Level FlightAware Transoceanic
11:50PM 23.9848 -150.5960 242° Southwest 436 502 31,000  Level FlightAware Transoceanic
11:51PM 23.9286 -150.7137 242° Southwest 436 502 31,000  Level FlightAware Transoceanic
11:52PM 23.8722 -150.8313 242° Southwest 436 502 31,000  Level FlightAware Transoceanic
11:53PM 23.8158 -150.9488 242° Southwest 436 502 31,000  Level FlightAware Transoceanic
11:54PM 23.7593 -151.0662 242° Southwest 436 502 31,000  Level FlightAware Transoceanic
11:55PM 23.7027 -151.1835 242° Southwest 436 502 31,000  Level FlightAware Transoceanic
11:56PM 23.6460 -151.3007 242° Southwest 436 502 31,000  Level FlightAware Transoceanic
11:57PM 23.5892 -151.4178 242° Southwest 436 502 31,000  Level FlightAware Transoceanic
11:58PM 23.5324 -151.5348 242° Southwest 436 502 31,000  Level FlightAware Transoceanic
11:59PM 23.4754 -151.6517 242° Southwest 436 502 31,000  Level FlightAware Transoceanic
12:00AM 23.4184 -151.7685 242° Southwest 436 502 31,000  Level FlightAware Transoceanic
12:01AM 23.3612 -151.8852 242° Southwest 436 502 31,000  Level FlightAware Transoceanic
12:02AM 23.3040 -152.0018 242° Southwest 436 502 31,000  Level FlightAware Transoceanic
12:03AM 23.2467 -152.1183 242° Southwest 436 502 31,000  Level FlightAware Transoceanic
12:04AM 23.1893 -152.2347 242° Southwest 436 502 31,000  Level FlightAware Transoceanic
12:05AM 23.1319 -152.3510 242° Southwest 436 502 31,000  Level FlightAware Transoceanic
12:06AM 23.0743 -152.4672 242° Southwest 436 502 31,000  Level FlightAware Transoceanic
12:07AM 23.0167 -152.5833 242° Southwest 436 502 31,000  Level FlightAware Transoceanic
12:07AM 22.9667 -152.6667 242° Southwest 470 541 31,000  Level Honolulu Center
12:08AM 22.9580 -152.7020 242° Southwest 436 502 31,000  Level FlightAware Transoceanic
12:08AM 22.9167 -152.8000 248° West 450 518 31,000  Level Honolulu Center
12:09AM 22.8993 -152.8206 242° Southwest 436 502 31,000  Level FlightAware Transoceanic
12:09AM 22.8500 -152.9167 238° Southwest 450 518 31,000  Level Honolulu Center
12:10AM 22.8404 -152.9391 242° Southwest 436 502 31,000  Level FlightAware Transoceanic
12:10AM 22.7833 -153.0333 238° Southwest 460 529 31,000  Level Honolulu Center
12:11AM 22.7815 -153.0575 242° Southwest 436 502 31,000  Level FlightAware Transoceanic
12:11AM 22.7333 -153.1500 245° Southwest 450 518 31,000  Level Honolulu Center
12:12AM 22.7225 -153.1758 242° Southwest 436 502 31,000  Level FlightAware Transoceanic
12:12AM 22.6667 -153.2667 238° Southwest 460 529 31,000  Level Honolulu Center
12:13AM 22.6167 -153.3833 245° Southwest 450 518 31,000  Level Honolulu Center
12:14AM 22.5833 -153.5167 255° West 440 506 31,000  Level Honolulu Center
12:15AM 22.5667 -153.6667 263° West 450 518 31,000  Level Honolulu Center
12:16AM 22.5500 -153.7667 260° West 460 529 31,000  Level Honolulu Center
12:17AM 22.5333 -153.9333 264° West 460 529 31,000  Level Honolulu Center
12:18AM 22.5167 -154.0667 262° West 450 518 31,000  Level Honolulu Center
12:19AM 22.5000 -154.2000 262° West 460 529 31,000  Level Honolulu Center
12:20AM 22.4833 -154.3500 263° West 460 529 31,000  Level Honolulu Center
12:21AM 22.4667 -154.4833 262° West 460 529 31,000  Level Honolulu Center
12:22AM 22.4333 -154.6167 255° West 460 529 31,000  Level Honolulu Center
12:23AM 22.4167 -154.7500 262° West 460 529 31,000  Level Honolulu Center
12:24AM 22.4000 -154.8833 262° West 460 529 31,000  Level Honolulu Center
12:25AM 22.3833 -155.0167 262° West 460 529 31,000  Level Honolulu Center
12:26AM 22.3667 -155.1667 263° West 450 518 31,000  Level Honolulu Center
12:27AM 22.3500 -155.3000 262° West 460 529 31,000  Level Honolulu Center
12:28AM 22.3333 -155.4333 262° West 450 518 31,000  Level Honolulu Center
12:29AM 22.3000 -155.5667 255° West 460 529 31,000  Level Honolulu Center
12:30AM 22.2833 -155.7000 262° West 450 518 31,000  Level Honolulu Center
12:31AM 22.2667 -155.8333 262° West 450 518 31,000  Level Honolulu Center
12:32AM 22.2500 -155.9667 262° West 450 518 31,000  Level Honolulu Center
12:33AM 22.2333 -156.1000 262° West 460 529 31,000  Level Honolulu Center
12:34AM 22.2000 -156.2333 255° West 450 518 31,000  Level Honolulu Center
12:35AM 22.1833 -156.3667 262° West 460 529 31,000  Level Honolulu Center
12:36AM 22.1667 -156.5000 262° West 450 518 31,000  Level Honolulu Center
12:37AM 22.1500 -156.6500 263° West 460 529 31,000  Level Honolulu Center
12:38AM 22.1167 -156.7833 255° West 460 529 31,000  Level Honolulu Center
12:39AM 22.1000 -156.9167 262° West 450 518 31,000  Level Honolulu Center
12:40AM 22.0833 -157.0500 262° West 450 518 31,000  Level Honolulu Center
12:41AM 22.0667 -157.1833 262° West 460 529 31,000 -480 Level Honolulu Center
12:42AM 22.0333 -157.3333 257° West 460 529 30,100 -1,260 Descending Honolulu Center
12:43AM 22.0167 -157.4667 262° West 470 541 28,500 -1,920 Descending Honolulu Center
12:44AM 22.0000 -157.6000 262° West 470 541 26,300 -2,040 Descending Honolulu Center
12:45AM 21.9667 -157.7333 255° West 460 529 24,500 -1,800 Descending Honolulu Center
12:46AM 21.9500 -157.8667 262° West 450 518 22,800 -1,800 Descending Honolulu Center
12:47AM 21.9333 -158.0000 262° West 440 506 21,000 -1,800 Descending Honolulu Center
12:48AM 21.9167 -158.1167 261° West 430 495 19,200 -1,800 Descending Honolulu Center
12:49AM 21.9000 -158.2333 261° West 410 472 17,500 -1,740 Descending Honolulu Center
12:50AM 21.8667 -158.3500 253° West 390 449 15,800 -1,560 Descending Honolulu Center
12:51AM 21.8500 -158.4667 261° West 390 449 14,400 -1,440 Descending Honolulu Center
12:52AM 21.8333 -158.5833 261° West 370 426 13,000 -1,620 Descending Honolulu Center
12:53AM 21.8167 -158.6833 260° West 370 426 11,200 -1,500 Descending Honolulu Center
12:54AM 21.8000 -158.8000 261° West 380 437 10,000 -1,320 Descending Honolulu Center
12:55AM 21.7833 -158.9167 261° West 320 368 8,600 -1,800 Descending Honolulu Center
12:56AM 21.7667 -158.9833 255° West 290 334 6,500 -2,220 Descending Honolulu Center
12:57AM 21.7500 -159.0833 260° West 290 334 4,200 -1,800 Descending Honolulu Center
12:58AM 21.7333 -159.1667 258° West 280 322 3,000 -600 Descending Honolulu Center
12:59AM 21.7333 -159.2333 270° West 240 276 3,000  Level Honolulu Center
01:00AM 21.7667 -159.2833 306° West 240 276 3,000  Level Honolulu Center
01:01AM 21.8000 -159.3333 306° West 180 207 3,100 -480 Climbing Honolulu Center
01:02AM 21.8500 -159.3333 360° North 170 196 2,100 -1,020 Descending Honolulu Center